createdAt,value
2022-10-27T00:04:55.369Z,12.01
2022-10-27T00:09:56.899Z,12.07
2022-10-27T00:14:58.571Z,12.11
2022-10-27T00:20:00.181Z,12.12
2022-10-27T00:25:02.234Z,12.14
2022-10-27T00:30:04.298Z,12.14
2022-10-27T00:35:06.371Z,12.15
2022-10-27T00:40:09.162Z,12.18
2022-10-27T00:45:10.910Z,12.16
2022-10-27T00:50:19.882Z,12.14
2022-10-27T00:55:24.010Z,12.14
2022-10-27T01:00:25.622Z,12.11
2022-10-27T01:05:29.328Z,12.07
2022-10-27T01:10:31.697Z,11.98
2022-10-27T01:15:59.061Z,11.91
2022-10-27T01:21:09.684Z,11.79
2022-10-27T01:26:27.199Z,11.68
2022-10-27T01:31:57.870Z,11.58
2022-10-27T01:37:26.822Z,11.49
2022-10-27T01:42:46.519Z,11.35
2022-10-27T01:47:48.968Z,11.32
2022-10-27T01:52:50.942Z,11.25
2022-10-27T01:58:07.857Z,11.15
2022-10-27T02:03:15.194Z,11.08
2022-10-27T02:08:16.753Z,11.03
2022-10-27T02:13:18.369Z,11.00
2022-10-27T02:18:26.327Z,10.95
2022-10-27T02:23:28.915Z,10.95
2022-10-27T02:28:49.852Z,10.91
2022-10-27T02:33:52.776Z,10.85
2022-10-27T02:38:54.338Z,10.78
2022-10-27T02:43:55.898Z,10.73
2022-10-27T02:48:57.476Z,10.69
2022-10-27T02:53:59.066Z,10.69
2022-10-27T02:59:00.673Z,10.67
2022-10-27T03:04:02.244Z,10.63
2022-10-27T03:09:03.853Z,10.55
2022-10-27T03:14:05.448Z,10.54
2022-10-27T03:19:07.073Z,10.56
2022-10-27T03:24:08.750Z,10.53
2022-10-27T03:29:10.323Z,10.55
2022-10-27T03:34:11.940Z,10.47
2022-10-27T03:39:13.547Z,10.44
2022-10-27T03:44:15.078Z,10.43
2022-10-27T03:49:16.634Z,10.46
2022-10-27T03:54:18.590Z,10.44
2022-10-27T03:59:20.166Z,10.46
2022-10-27T04:04:21.718Z,10.41
2022-10-27T04:09:23.315Z,10.40
2022-10-27T04:14:24.864Z,10.38
2022-10-27T04:19:26.437Z,10.38
2022-10-27T04:24:28.032Z,10.36
2022-10-27T04:29:29.644Z,10.34
2022-10-27T04:34:31.211Z,10.30
2022-10-27T04:39:32.781Z,10.29
2022-10-27T04:44:34.311Z,10.27
2022-10-27T04:49:36.279Z,10.28
2022-10-27T04:54:38.954Z,10.23
2022-10-27T04:59:40.530Z,10.20
2022-10-27T05:04:42.081Z,10.14
2022-10-27T05:09:43.666Z,10.13
2022-10-27T05:14:45.252Z,10.11
2022-10-27T05:19:46.903Z,10.11
2022-10-27T05:24:48.477Z,10.10
2022-10-27T05:29:50.048Z,10.09
2022-10-27T05:34:51.650Z,10.09
2022-10-27T05:39:53.245Z,10.12
2022-10-27T05:44:54.841Z,10.15
2022-10-27T05:49:56.406Z,10.21
2022-10-27T05:54:57.961Z,10.29
2022-10-27T05:59:59.519Z,10.33
2022-10-27T06:05:01.041Z,10.40
2022-10-27T06:10:02.597Z,10.45
2022-10-27T06:15:05.119Z,10.50
2022-10-27T06:20:06.898Z,10.62
2022-10-27T06:25:08.627Z,10.71
2022-10-27T06:30:10.597Z,10.80
2022-10-27T06:35:12.313Z,10.94
2022-10-27T06:40:19.013Z,11.04
2022-10-27T06:45:20.551Z,11.21
2022-10-27T06:50:22.145Z,11.45
2022-10-27T06:55:23.684Z,11.61
2022-10-27T07:00:25.511Z,11.78
2022-10-27T07:05:27.188Z,11.94
2022-10-27T07:10:28.786Z,12.18
2022-10-27T07:15:33.201Z,12.43
2022-10-27T07:20:36.143Z,12.76
2022-10-27T07:25:38.117Z,13.05
2022-10-27T07:30:44.398Z,13.27
2022-10-27T07:35:49.451Z,13.59
2022-10-27T07:40:50.993Z,13.92
2022-10-27T07:45:52.606Z,14.21
2022-10-27T07:50:55.276Z,14.50
2022-10-27T07:55:58.370Z,14.79
2022-10-27T08:01:00.459Z,15.13
2022-10-27T08:06:03.364Z,15.50
2022-10-27T08:11:05.002Z,15.84
2022-10-27T08:16:06.726Z,16.17
2022-10-27T08:21:08.302Z,16.45
2022-10-27T08:26:10.122Z,16.61
2022-10-27T08:31:11.654Z,16.71
2022-10-27T08:36:13.976Z,16.83
2022-10-27T08:41:25.584Z,17.03
2022-10-27T08:46:45.352Z,16.92
2022-10-27T08:51:49.502Z,16.89
2022-10-27T08:56:53.113Z,17.12
2022-10-27T09:02:23.051Z,17.31
2022-10-27T09:07:36.234Z,17.46
2022-10-27T09:13:05.458Z,17.60
2022-10-27T09:18:15.554Z,17.62
2022-10-27T09:23:18.653Z,17.90
2022-10-27T09:28:25.253Z,17.96
2022-10-27T09:33:34.166Z,18.13
2022-10-27T09:38:37.389Z,18.70
2022-10-27T09:43:39.015Z,18.58
2022-10-27T09:48:41.365Z,18.39
2022-10-27T09:53:52.706Z,18.50
2022-10-27T09:59:07.141Z,18.53
2022-10-27T10:04:36.731Z,18.58
2022-10-27T10:09:39.658Z,18.51
2022-10-27T10:14:41.302Z,18.53
2022-10-27T10:19:46.716Z,18.53
2022-10-27T10:24:48.329Z,18.52
2022-10-27T10:29:51.000Z,18.59
2022-10-27T10:34:56.796Z,18.55
2022-10-27T10:40:28.487Z,18.71
2022-10-27T10:45:34.479Z,18.77
2022-10-27T10:50:47.009Z,18.76
2022-10-27T10:55:48.620Z,18.77
2022-10-27T11:00:56.407Z,18.90
2022-10-27T11:06:01.941Z,18.53
2022-10-27T11:11:06.888Z,18.34
2022-10-27T11:16:10.876Z,18.66
2022-10-27T11:21:24.902Z,18.80
2022-10-27T11:26:55.765Z,18.97
2022-10-27T11:32:13.024Z,19.09
2022-10-27T11:37:31.987Z,19.11
2022-10-27T11:42:45.693Z,19.22
2022-10-27T11:47:51.778Z,19.55
2022-10-27T11:52:56.963Z,19.37
2022-10-27T11:58:24.803Z,19.47
2022-10-27T12:03:51.720Z,19.40
2022-10-27T12:09:00.821Z,19.37
2022-10-27T12:14:25.785Z,19.29
2022-10-27T12:19:36.122Z,19.38
2022-10-27T12:25:08.292Z,19.41
2022-10-27T12:30:17.023Z,19.63
2022-10-27T12:35:27.722Z,19.78
2022-10-27T12:40:48.410Z,20.03
2022-10-27T12:46:06.489Z,19.86
2022-10-27T12:51:32.089Z,19.84
2022-10-27T12:57:14.790Z,19.88
2022-10-27T13:02:18.211Z,19.68
2022-10-27T13:07:53.381Z,19.68
2022-10-27T13:13:01.169Z,19.70
2022-10-27T13:18:20.709Z,19.70
2022-10-27T13:23:36.392Z,19.62
2022-10-27T13:28:48.714Z,19.53
2022-10-27T13:39:15.054Z,19.38
2022-10-27T13:44:29.773Z,19.39
2022-10-27T13:49:40.450Z,19.24
2022-10-27T13:54:58.326Z,19.20
2022-10-27T14:00:06.647Z,19.20
2022-10-27T14:05:22.060Z,19.19
2022-10-27T14:10:23.741Z,19.08
2022-10-27T14:15:28.115Z,18.95
2022-10-27T14:20:35.359Z,18.89
2022-10-27T14:25:36.957Z,18.83
2022-10-27T14:30:38.590Z,18.77
2022-10-27T14:35:40.163Z,18.72
2022-10-27T14:40:41.751Z,18.61
2022-10-27T14:45:43.930Z,18.52
2022-10-27T14:50:45.623Z,18.40
2022-10-27T14:56:20.384Z,18.27
2022-10-27T15:01:34.393Z,18.10
2022-10-27T15:06:36.772Z,18.00
2022-10-27T15:11:38.341Z,17.88
2022-10-27T15:16:39.952Z,17.72
2022-10-27T15:21:42.123Z,17.59
2022-10-27T15:26:44.843Z,17.37
2022-10-27T15:31:47.454Z,17.30
2022-10-27T15:36:50.013Z,17.19
2022-10-27T15:41:52.442Z,17.08
2022-10-27T15:46:54.010Z,16.94
2022-10-27T15:51:58.693Z,16.82
2022-10-27T15:57:02.578Z,16.71
2022-10-27T16:02:29.077Z,16.61
2022-10-27T16:07:31.610Z,16.46
2022-10-27T16:12:41.625Z,16.32
2022-10-27T16:17:47.497Z,16.14
2022-10-27T16:22:50.688Z,16.05
2022-10-27T16:27:52.718Z,16.00
2022-10-27T16:33:02.157Z,15.82
2022-10-27T16:38:03.709Z,15.79
2022-10-27T16:43:06.207Z,15.69
2022-10-27T16:48:13.357Z,15.57
2022-10-27T16:53:20.200Z,15.49
2022-10-27T16:58:21.758Z,15.43
2022-10-27T17:03:23.413Z,15.40
2022-10-27T17:08:25.237Z,15.39
2022-10-27T17:13:26.803Z,15.36
2022-10-27T17:18:29.837Z,15.35
2022-10-27T17:23:31.561Z,15.21
2022-10-27T17:28:34.030Z,15.19
2022-10-27T17:33:36.416Z,15.23
2022-10-27T17:38:38.485Z,15.27
2022-10-27T17:43:40.069Z,15.20
2022-10-27T17:48:47.253Z,15.18
2022-10-27T17:53:50.367Z,15.16
2022-10-27T17:58:53.235Z,14.99
2022-10-27T18:03:56.307Z,14.99
2022-10-27T18:08:59.961Z,15.03
2022-10-27T18:14:04.592Z,15.12
2022-10-27T18:19:08.455Z,15.16
2022-10-27T18:24:11.727Z,15.20
2022-10-27T18:29:14.379Z,15.13
2022-10-27T18:34:16.929Z,15.04
2022-10-27T18:39:19.699Z,14.98
2022-10-27T18:44:22.266Z,14.84
2022-10-27T18:49:46.850Z,14.82
2022-10-27T18:54:48.326Z,14.84
2022-10-27T18:59:49.875Z,14.79
2022-10-27T19:04:53.919Z,14.70
2022-10-27T19:09:55.518Z,14.50
2022-10-27T19:14:57.111Z,14.39
2022-10-27T19:19:59.857Z,14.25
2022-10-27T19:25:02.411Z,14.14
2022-10-27T19:30:04.219Z,14.15
2022-10-27T19:35:05.926Z,14.16
2022-10-27T19:40:08.583Z,14.20
2022-10-27T19:45:10.340Z,14.28
2022-10-27T19:50:11.895Z,14.30
2022-10-27T19:55:13.510Z,14.24
2022-10-27T20:00:15.584Z,14.15
2022-10-27T20:05:17.250Z,14.10
2022-10-27T20:10:20.265Z,14.05
2022-10-27T20:15:21.850Z,14.01
2022-10-27T20:20:23.382Z,13.98
2022-10-27T20:25:24.941Z,13.98
2022-10-27T20:30:26.490Z,13.86
2022-10-27T20:35:28.023Z,13.77
2022-10-27T20:40:29.576Z,13.68
2022-10-27T20:45:31.197Z,13.66
2022-10-27T20:50:32.788Z,13.55
2022-10-27T20:55:34.359Z,13.53
2022-10-27T21:00:35.916Z,13.54
2022-10-27T21:05:37.611Z,13.47
2022-10-27T21:10:42.579Z,13.39
2022-10-27T21:15:44.452Z,13.29
2022-10-27T21:20:46.089Z,13.22
2022-10-27T21:25:47.723Z,13.17
2022-10-27T21:30:49.340Z,13.04
2022-10-27T21:35:50.918Z,12.90
2022-10-27T21:40:52.499Z,12.95
2022-10-27T21:45:57.770Z,12.87
2022-10-27T21:50:59.333Z,12.87
2022-10-27T21:56:04.914Z,12.77
2022-10-27T22:01:16.218Z,12.85
2022-10-27T22:06:22.639Z,12.90
2022-10-27T22:11:26.626Z,12.84
2022-10-27T22:16:29.936Z,12.82
2022-10-27T22:21:34.343Z,12.82
2022-10-27T22:26:38.817Z,12.86
2022-10-27T22:31:40.419Z,12.90
2022-10-27T22:36:42.121Z,12.79
2022-10-27T22:41:43.855Z,12.81
2022-10-27T22:46:45.474Z,12.73
2022-10-27T22:51:48.601Z,12.67
2022-10-27T22:56:50.251Z,12.60
2022-10-27T23:01:53.217Z,12.48
2022-10-27T23:06:54.956Z,12.41
2022-10-27T23:11:56.495Z,12.39
2022-10-27T23:16:59.243Z,12.36
2022-10-27T23:22:00.781Z,12.40
2022-10-27T23:27:02.346Z,12.50
2022-10-27T23:32:04.137Z,12.55
2022-10-27T23:37:05.669Z,12.58
2022-10-27T23:42:07.285Z,12.48
2022-10-27T23:47:10.682Z,12.46
2022-10-27T23:52:12.253Z,12.46
2022-10-27T23:57:13.790Z,12.39
